Time;durP1;ratioP1;P1;durP2;ratioP2;P2;SDS_P1;SDS_P2;PMS_P1;PMS_P2;Temp;Humidity;BMP_temperature;BMP_pressure;BME280_temperature;BME280_humidity;BME280_pressure;Samples;Min_cycle;Max_cycle;Signal;HPM_P1;HPM_P2
2021/09/18 00:02:22;;;;;;;35.33;24.40;;;;;;;14.37;81.09;101371.84;5004834;28;20029;-80
2021/09/18 00:04:49;;;;;;;33.33;23.00;;;;;;;14.36;81.13;101375.44;5009002;28;20021;-78
2021/09/18 00:07:15;;;;;;;33.13;23.75;;;;;;;14.31;81.14;101364.69;5018945;28;20045;-78
2021/09/18 00:09:41;;;;;;;39.45;26.75;;;;;;;14.27;81.35;101371.22;5012707;28;20041;-80
2021/09/18 00:12:06;;;;;;;35.85;23.88;;;;;;;14.26;81.45;101370.44;4996420;28;20040;-79
2021/09/18 00:14:32;;;;;;;38.13;25.02;;;;;;;14.25;81.36;101371.41;5013231;28;20254;-78
2021/09/18 00:16:57;;;;;;;38.03;25.13;;;;;;;14.20;81.37;101376.28;4996624;28;20544;-78
2021/09/18 00:19:23;;;;;;;32.13;21.92;;;;;;;14.14;81.73;101372.53;5021167;28;20087;-78
2021/09/18 00:21:48;;;;;;;32.10;22.00;;;;;;;14.13;81.60;101373.53;5019341;28;20050;-79
2021/09/18 00:24:14;;;;;;;31.75;21.85;;;;;;;14.12;81.39;101382.31;5008309;28;20030;-79
2021/09/18 00:26:40;;;;;;;34.30;21.83;;;;;;;14.07;81.35;101376.81;4996171;28;20038;-79
2021/09/18 00:29:06;;;;;;;32.10;21.63;;;;;;;14.05;81.05;101368.31;5007034;28;20021;-79
2021/09/18 00:31:32;;;;;;;39.25;23.33;;;;;;;14.04;81.40;101374.53;5020819;28;20060;-79
2021/09/18 00:33:57;;;;;;;43.78;26.33;;;;;;;13.98;81.82;101367.38;5007597;28;20068;-79
2021/09/18 00:36:22;;;;;;;36.10;23.55;;;;;;;13.93;82.14;101375.66;5018894;28;20030;-79
2021/09/18 00:38:48;;;;;;;34.60;23.02;;;;;;;13.91;82.12;101364.59;5021425;28;20433;-79
2021/09/18 00:41:14;;;;;;;39.13;23.75;;;;;;;13.92;81.91;101362.78;5013895;28;20044;-79
2021/09/18 00:43:39;;;;;;;33.55;23.42;;;;;;;13.92;81.86;101366.22;4996200;28;20033;-78
2021/09/18 00:46:05;;;;;;;38.28;24.80;;;;;;;13.91;81.87;101366.38;5012238;28;20036;-80
2021/09/18 00:48:30;;;;;;;45.63;26.33;;;;;;;13.90;81.62;101367.34;5020805;28;20061;-80
2021/09/18 00:50:56;;;;;;;37.00;23.40;;;;;;;13.88;81.68;101359.72;5019537;28;20040;-80
2021/09/18 00:53:22;;;;;;;38.90;23.33;;;;;;;13.88;81.50;101366.72;5008012;28;20037;-80
2021/09/18 00:55:49;;;;;;;33.90;23.17;;;;;;;13.79;81.54;101369.31;5012406;28;20116;-79
2021/09/18 00:58:15;;;;;;;34.80;23.33;;;;;;;13.67;81.66;101369.81;5011782;28;20037;-79
2021/09/18 01:00:41;;;;;;;30.75;20.75;;;;;;;13.59;81.99;101363.63;5006499;28;20041;-79
2021/09/18 01:03:06;;;;;;;33.72;21.83;;;;;;;13.54;82.17;101357.25;5013850;28;20139;-79
2021/09/18 01:05:33;;;;;;;34.97;22.00;;;;;;;13.51;82.00;101362.81;5034861;28;20120;-79
2021/09/18 01:07:59;;;;;;;34.63;21.48;;;;;;;13.50;81.89;101364.56;4995706;28;20037;-79
2021/09/18 01:10:25;;;;;;;37.75;21.83;;;;;;;13.53;81.89;101368.66;5017742;28;20044;-79
2021/09/18 01:13:03;;;;;;;34.50;23.50;;;;;;;13.47;81.59;101362.31;5010244;28;20065;-79
2021/09/18 01:15:29;;;;;;;35.92;21.52;;;;;;;13.43;81.94;101366.22;5027752;28;20021;-79
2021/09/18 01:17:56;;;;;;;33.60;20.88;;;;;;;13.35;81.98;101372.19;5037010;28;20033;-79
2021/09/18 01:20:22;;;;;;;34.22;21.10;;;;;;;13.32;82.18;101374.34;5011135;28;20309;-79
2021/09/18 01:22:48;;;;;;;29.70;19.98;;;;;;;13.32;82.03;101376.94;5002788;28;20017;-78
2021/09/18 01:25:14;;;;;;;33.03;22.08;;;;;;;13.35;81.82;101380.03;5031835;28;20106;-79
2021/09/18 01:27:43;;;;;;;34.65;21.50;;;;;;;13.35;81.85;101380.03;5015365;28;20655;-79
2021/09/18 01:30:09;;;;;;;30.98;20.98;;;;;;;13.30;81.80;101374.50;5032125;28;20482;-79
2021/09/18 01:32:35;;;;;;;35.55;22.65;;;;;;;13.25;82.18;101377.53;5015758;28;20067;-79
2021/09/18 01:35:00;;;;;;;35.67;22.83;;;;;;;13.19;82.24;101374.75;5015419;28;20109;-79
2021/09/18 01:37:27;;;;;;;31.70;21.40;;;;;;;13.11;82.27;101382.53;5011837;28;20037;-79
2021/09/18 01:39:52;;;;;;;33.10;21.33;;;;;;;13.07;82.42;101384.63;4995789;28;20087;-79
2021/09/18 01:42:18;;;;;;;31.05;22.13;;;;;;;13.03;82.33;101378.97;4995936;28;20041;-79
2021/09/18 01:44:43;;;;;;;32.60;21.45;;;;;;;13.01;82.39;101378.28;5011843;28;20475;-79
2021/09/18 01:47:08;;;;;;;32.42;21.80;;;;;;;13.04;82.22;101380.56;5000473;28;20033;-80
2021/09/18 01:49:34;;;;;;;33.28;21.77;;;;;;;13.07;82.18;101381.22;4993142;28;20033;-79
2021/09/18 01:52:07;;;;;;;33.83;21.27;;;;;;;13.08;82.14;101380.25;5038588;28;20033;-79
2021/09/18 01:54:34;;;;;;;31.45;20.52;;;;;;;13.04;82.21;101382.38;5017773;28;20065;-80
2021/09/18 01:57:05;;;;;;;36.00;22.85;;;;;;;13.05;82.21;101381.38;5011774;28;20025;-79
2021/09/18 01:59:31;;;;;;;37.42;23.75;;;;;;;13.04;82.32;101385.78;5011900;28;20491;-79
2021/09/18 02:01:56;;;;;;;34.30;21.75;;;;;;;13.01;82.49;101382.66;4999383;28;20060;-80
2021/09/18 02:04:22;;;;;;;36.83;23.65;;;;;;;13.00;82.29;101375.84;5011259;28;20040;-79
2021/09/18 02:06:47;;;;;;;39.25;24.70;;;;;;;12.98;82.30;101381.22;5022857;28;20048;-79
2021/09/18 02:09:13;;;;;;;44.85;25.08;;;;;;;12.96;82.37;101380.56;5011340;28;20041;-79
2021/09/18 02:11:38;;;;;;;37.45;25.38;;;;;;;12.92;82.40;101371.44;5024791;28;20388;-79
2021/09/18 02:14:03;;;;;;;39.35;25.83;;;;;;;12.87;82.22;101370.28;5032865;28;20025;-79
2021/09/18 02:16:29;;;;;;;42.03;24.38;;;;;;;12.82;82.70;101368.13;5020323;28;20025;-80
2021/09/18 02:18:54;;;;;;;35.50;23.42;;;;;;;12.79;82.67;101371.03;5011349;28;20273;-80
2021/09/18 02:21:20;;;;;;;38.53;24.42;;;;;;;12.76;82.65;101374.78;5001544;28;20479;-78
2021/09/18 02:23:48;;;;;;;32.03;21.00;;;;;;;12.75;82.75;101369.72;5005903;28;20035;-78
2021/09/18 02:26:14;;;;;;;41.50;25.10;;;;;;;12.78;82.64;101364.22;4995620;28;20164;-78
2021/09/18 02:28:40;;;;;;;41.10;25.95;;;;;;;12.77;82.58;101365.16;5013380;28;20032;-78
2021/09/18 02:31:06;;;;;;;42.22;28.05;;;;;;;12.74;82.76;101368.91;5010840;28;20250;-78
2021/09/18 02:33:31;;;;;;;36.70;22.77;;;;;;;12.74;82.95;101368.09;4996463;28;20034;-78
2021/09/18 02:35:57;;;;;;;36.55;23.35;;;;;;;12.76;83.25;101366.16;5010090;28;20037;-78
2021/09/18 02:38:22;;;;;;;39.22;24.15;;;;;;;12.73;83.03;101366.47;5007596;28;20083;-79
2021/09/18 02:40:52;;;;;;;36.28;23.98;;;;;;;12.63;82.79;101367.38;5002397;28;20503;-80
2021/09/18 02:43:18;;;;;;;35.38;21.35;;;;;;;12.56;83.20;101370.78;5014882;28;20032;-79
2021/09/18 02:45:43;;;;;;;36.83;22.85;;;;;;;12.51;83.26;101362.59;5010445;28;20395;-78
2021/09/18 02:48:08;;;;;;;32.53;21.50;;;;;;;12.46;83.19;101361.28;5017793;28;20025;-78
2021/09/18 02:50:34;;;;;;;38.33;23.20;;;;;;;12.44;83.30;101358.03;5019020;28;20037;-79
2021/09/18 02:52:59;;;;;;;38.30;23.63;;;;;;;12.40;83.23;101367.13;4998495;28;20072;-79
2021/09/18 02:55:26;;;;;;;35.42;23.27;;;;;;;12.38;83.33;101361.25;4995680;28;20029;-79
2021/09/18 02:57:51;;;;;;;39.10;24.38;;;;;;;12.32;83.35;101363.66;5033607;28;20037;-79
2021/09/18 03:00:17;;;;;;;37.80;23.17;;;;;;;12.29;83.57;101356.97;5028164;28;20391;-80
2021/09/18 03:02:43;;;;;;;33.45;22.67;;;;;;;12.26;83.52;101354.66;5021492;28;20495;-79
2021/09/18 03:05:10;;;;;;;35.22;21.73;;;;;;;12.24;83.61;101354.84;5008249;28;20638;-78
2021/09/18 03:07:35;;;;;;;36.13;21.80;;;;;;;12.23;83.67;101355.00;5014322;28;20422;-78
2021/09/18 03:10:01;;;;;;;31.23;21.23;;;;;;;12.22;83.39;101354.19;5012477;28;20037;-78
2021/09/18 03:12:27;;;;;;;34.60;22.33;;;;;;;12.20;83.62;101345.69;5008060;28;20510;-80
2021/09/18 03:14:52;;;;;;;30.58;20.20;;;;;;;12.19;83.51;101357.09;5035101;28;20486;-79
2021/09/18 03:17:18;;;;;;;31.80;20.38;;;;;;;12.17;83.44;101348.63;5001451;28;20483;-79
2021/09/18 03:19:43;;;;;;;30.52;19.85;;;;;;;12.15;83.48;101347.13;5015129;28;20033;-79
2021/09/18 03:22:09;;;;;;;33.67;20.13;;;;;;;12.14;83.54;101340.31;5014725;28;20083;-80
2021/09/18 03:24:34;;;;;;;31.38;18.63;;;;;;;12.12;83.70;101343.06;5022762;28;20033;-80
2021/09/18 03:26:59;;;;;;;33.58;20.95;;;;;;;12.15;83.60;101341.94;5014921;28;20035;-80
2021/09/18 03:29:26;;;;;;;34.05;21.50;;;;;;;12.14;83.40;101343.72;5003982;28;20505;-77
2021/09/18 03:31:51;;;;;;;33.30;20.45;;;;;;;12.14;83.49;101346.31;5021861;28;20112;-77
2021/09/18 03:34:17;;;;;;;34.60;21.63;;;;;;;12.16;83.63;101348.78;5004833;28;20469;-77
2021/09/18 03:36:42;;;;;;;40.40;23.27;;;;;;;12.17;83.19;101353.03;5007093;28;20034;-78
2021/09/18 03:39:08;;;;;;;36.25;22.40;;;;;;;12.13;83.42;101346.47;5018549;28;20556;-79
2021/09/18 03:41:33;;;;;;;36.55;23.15;;;;;;;12.14;83.56;101353.31;5021605;28;20041;-80
2021/09/18 03:43:59;;;;;;;37.47;24.25;;;;;;;12.14;83.36;101348.13;5016166;28;20025;-80
2021/09/18 03:46:24;;;;;;;35.45;23.08;;;;;;;12.13;83.65;101352.50;5022988;28;20034;-80
2021/09/18 03:48:50;;;;;;;37.72;23.40;;;;;;;12.12;83.31;101347.44;5003409;28;20460;-80
2021/09/18 03:51:15;;;;;;;37.92;22.33;;;;;;;12.05;83.16;101342.88;5022890;28;20037;-80
2021/09/18 03:53:41;;;;;;;34.05;22.13;;;;;;;11.96;83.54;101341.19;5006106;28;20029;-79
2021/09/18 03:56:06;;;;;;;34.28;21.15;;;;;;;11.91;84.06;101353.00;5026808;28;20087;-79
2021/09/18 03:58:32;;;;;;;34.53;22.38;;;;;;;11.91;83.74;101348.59;5013639;28;20045;-79
2021/09/18 04:00:58;;;;;;;32.20;20.52;;;;;;;11.92;83.85;101352.00;5021518;28;20069;-80
2021/09/18 04:03:23;;;;;;;38.05;24.00;;;;;;;11.91;84.08;101353.81;5014728;28;20036;-79
2021/09/18 04:05:48;;;;;;;32.22;21.77;;;;;;;11.91;84.01;101353.00;5014249;28;20213;-79
2021/09/18 04:08:14;;;;;;;34.55;22.35;;;;;;;11.91;84.26;101358.19;5001232;28;20037;-78
2021/09/18 04:10:39;;;;;;;37.40;23.35;;;;;;;11.91;84.27;101359.00;5016818;28;20025;-78
2021/09/18 04:13:05;;;;;;;40.25;25.13;;;;;;;11.92;84.52;101350.22;5016705;28;20501;-80
2021/09/18 04:15:31;;;;;;;47.05;26.73;;;;;;;11.95;84.56;101346.53;4997402;28;20405;-79
2021/09/18 04:17:57;;;;;;;50.53;28.88;;;;;;;11.99;84.66;101366.03;5003373;28;20028;-78
2021/09/18 04:20:22;;;;;;;54.70;30.42;;;;;;;12.00;84.79;101362.50;5022554;28;20041;-78
2021/09/18 04:22:48;;;;;;;61.20;36.10;;;;;;;11.99;84.97;101364.25;5025352;28;20021;-78
2021/09/18 04:25:13;;;;;;;76.85;37.10;;;;;;;11.99;85.63;101369.44;5001460;28;20037;-78
2021/09/18 04:27:39;;;;;;;77.68;39.55;;;;;;;11.98;86.20;101370.44;5001882;28;20399;-79
2021/09/18 04:30:05;;;;;;;69.25;37.38;;;;;;;11.98;86.75;101377.38;5002181;28;20121;-78
2021/09/18 04:32:30;;;;;;;73.28;39.55;;;;;;;11.99;86.84;101374.66;5002464;28;20668;-78
2021/09/18 04:34:56;;;;;;;78.53;40.22;;;;;;;11.97;87.41;101371.38;5015360;28;20037;-78
2021/09/18 04:37:22;;;;;;;86.78;42.60;;;;;;;11.97;87.97;101368.78;5037580;28;20033;-78
2021/09/18 04:39:48;;;;;;;83.90;43.50;;;;;;;11.97;88.48;101370.56;5017861;28;20027;-78
2021/09/18 04:42:13;;;;;;;79.80;42.40;;;;;;;11.95;88.84;101367.31;5030851;28;20044;-78
2021/09/18 04:44:39;;;;;;;81.72;40.42;;;;;;;11.93;89.12;101375.25;5024042;28;20014;-78
2021/09/18 04:47:04;;;;;;;73.57;38.42;;;;;;;11.92;89.37;101378.00;5014836;28;20289;-77
2021/09/18 04:49:30;;;;;;;67.07;33.70;;;;;;;11.90;89.54;101374.75;5014360;28;20033;-78
2021/09/18 04:51:55;;;;;;;57.65;33.40;;;;;;;11.89;89.62;101371.31;5019340;28;20410;-78
2021/09/18 04:54:21;;;;;;;60.78;32.00;;;;;;;11.86;89.65;101382.78;5031593;28;20036;-79
2021/09/18 04:56:46;;;;;;;66.07;34.58;;;;;;;11.86;89.75;101385.38;5012516;28;20438;-78
2021/09/18 04:59:12;;;;;;;63.53;34.72;;;;;;;11.88;89.92;101393.03;5030641;28;20036;-78
2021/09/18 05:01:37;;;;;;;58.13;34.30;;;;;;;11.92;90.14;101385.78;5002215;28;20037;-79
2021/09/18 05:04:03;;;;;;;62.47;34.50;;;;;;;11.93;90.08;101388.25;5016145;28;20406;-79
2021/09/18 05:06:28;;;;;;;57.97;32.90;;;;;;;11.94;90.25;101389.91;5028986;28;20107;-79
2021/09/18 05:08:54;;;;;;;56.90;32.55;;;;;;;11.94;90.25;101392.50;5016639;28;20033;-77
2021/09/18 05:11:19;;;;;;;56.90;32.75;;;;;;;11.95;90.36;101393.31;5012569;28;20045;-78
2021/09/18 05:13:45;;;;;;;60.13;36.53;;;;;;;11.97;90.59;101393.97;5017795;28;20718;-78
2021/09/18 05:16:10;;;;;;;61.83;34.80;;;;;;;11.98;91.03;101396.41;5036133;28;20048;-78
2021/09/18 05:18:36;;;;;;;64.40;40.80;;;;;;;12.02;90.98;101407.34;5018792;28;20029;-78
2021/09/18 05:21:01;;;;;;;56.75;38.58;;;;;;;12.03;91.47;101408.94;5013571;28;20036;-78
2021/09/18 05:23:27;;;;;;;59.38;36.85;;;;;;;12.04;91.56;101416.59;5030223;28;20368;-78
2021/09/18 05:25:52;;;;;;;53.38;36.78;;;;;;;12.06;91.79;101419.06;5005534;28;20029;-78
2021/09/18 05:28:18;;;;;;;53.50;36.03;;;;;;;12.05;91.71;101420.84;5029595;28;20041;-79
2021/09/18 05:30:43;;;;;;;51.50;34.72;;;;;;;12.07;92.20;101425.88;5004197;28;20036;-76
2021/09/18 05:33:09;;;;;;;49.10;33.85;;;;;;;12.09;92.06;101426.53;5018561;28;20475;-77
2021/09/18 05:35:34;;;;;;;53.67;37.20;;;;;;;12.13;92.26;101425.28;5011088;28;20021;-77
2021/09/18 05:38:00;;;;;;;50.45;35.80;;;;;;;12.14;92.53;101418.31;4997491;28;20033;-76
2021/09/18 05:40:26;;;;;;;45.08;34.08;;;;;;;12.14;92.05;101423.50;5011698;28;20033;-77
2021/09/18 05:42:53;;;;;;;40.92;29.67;;;;;;;12.15;92.09;101423.34;5015099;28;20545;-76
2021/09/18 05:45:18;;;;;;;46.25;31.80;;;;;;;12.16;91.91;101417.19;5024029;28;20061;-77
2021/09/18 05:47:44;;;;;;;48.60;32.95;;;;;;;12.17;91.83;101416.22;5004913;28;20053;-77
2021/09/18 05:50:09;;;;;;;54.00;35.50;;;;;;;12.17;91.22;101418.00;5021086;28;20506;-77
2021/09/18 05:52:35;;;;;;;52.22;35.13;;;;;;;12.13;91.22;101414.91;5003659;28;20438;-77
2021/09/18 05:55:00;;;;;;;54.70;34.25;;;;;;;12.13;91.11;101409.69;4995935;28;20049;-76
2021/09/18 05:57:26;;;;;;;46.58;30.40;;;;;;;12.11;91.66;101408.19;4994488;28;20024;-77
2021/09/18 05:59:51;;;;;;;46.78;31.25;;;;;;;12.15;91.48;101410.34;4999364;28;20084;-77
2021/09/18 06:02:17;;;;;;;56.63;32.13;;;;;;;12.16;91.66;101411.16;5016143;28;20021;-77
2021/09/18 06:04:42;;;;;;;51.58;28.63;;;;;;;12.17;91.53;101423.22;5017231;28;20029;-77
2021/09/18 06:07:08;;;;;;;38.35;28.60;;;;;;;12.16;91.53;101427.56;5002623;28;20387;-79
2021/09/18 06:09:33;;;;;;;50.50;28.55;;;;;;;12.19;91.66;101432.47;4997449;28;20057;-79
2021/09/18 06:11:59;;;;;;;39.35;29.27;;;;;;;12.19;91.39;101422.09;5020005;28;20095;-78
2021/09/18 06:14:24;;;;;;;35.10;25.85;;;;;;;12.21;91.48;101433.16;5012774;28;20037;-79
2021/09/18 06:16:50;;;;;;;34.28;26.55;;;;;;;12.25;91.68;101426.66;5011482;28;20041;-79
2021/09/18 06:19:18;;;;;;;39.58;30.33;;;;;;;12.28;91.23;101430.75;5014622;28;20036;-79
2021/09/18 06:21:47;;;;;;;35.63;25.42;;;;;;;12.32;91.48;101429.50;5000470;28;20033;-78
2021/09/18 06:24:14;;;;;;;55.80;29.38;;;;;;;12.41;91.02;101432.94;5010214;28;20041;-79
2021/09/18 06:26:40;;;;;;;33.58;26.35;;;;;;;12.40;90.92;101431.31;5028001;28;20434;-78
2021/09/18 06:29:06;;;;;;;33.55;24.05;;;;;;;12.42;91.03;101434.59;5031834;28;20029;-79
2021/09/18 06:31:32;;;;;;;30.13;23.50;;;;;;;12.42;90.97;101432.78;5012001;28;20021;-79
2021/09/18 06:33:57;;;;;;;38.90;26.67;;;;;;;12.44;90.66;101436.06;5032289;28;20473;-79
2021/09/18 06:36:23;;;;;;;42.67;27.10;;;;;;;12.52;90.08;101434.50;5021580;28;20037;-78
2021/09/18 06:38:48;;;;;;;57.58;27.80;;;;;;;12.43;89.83;101442.25;5029101;28;20076;-79
2021/09/18 06:41:14;;;;;;;42.13;26.92;;;;;;;12.48;90.38;101441.78;4995685;28;20056;-77
2021/09/18 06:43:39;;;;;;;33.15;23.90;;;;;;;12.46;90.59;101446.31;5011749;28;20572;-79
2021/09/18 06:46:05;;;;;;;30.00;24.17;;;;;;;12.54;90.77;101446.34;5011099;28;20091;-77
2021/09/18 06:48:30;;;;;;;31.10;24.50;;;;;;;12.60;90.89;101444.94;5018335;28;20160;-78
2021/09/18 06:50:56;;;;;;;43.53;28.52;;;;;;;12.72;90.43;101448.13;5005741;28;20052;-78
2021/09/18 06:53:21;;;;;;;33.47;25.55;;;;;;;12.76;90.71;101449.44;5015584;28;20061;-78
2021/09/18 06:55:47;;;;;;;36.35;27.50;;;;;;;12.80;91.02;101448.16;5018266;28;20502;-79
2021/09/18 06:58:13;;;;;;;41.17;29.60;;;;;;;12.92;90.31;101443.47;5016515;28;20037;-79
2021/09/18 07:00:38;;;;;;;58.00;32.25;;;;;;;12.91;90.16;101449.66;5038542;28;20040;-79
2021/09/18 07:03:04;;;;;;;48.70;31.58;;;;;;;12.89;90.72;101444.63;5019181;28;20450;-78
2021/09/18 07:05:29;;;;;;;46.58;33.20;;;;;;;12.91;90.99;101439.25;5016654;28;20029;-78
2021/09/18 07:07:55;;;;;;;50.72;32.88;;;;;;;12.93;90.92;101440.72;5033950;28;20056;-76
2021/09/18 07:10:20;;;;;;;46.30;31.85;;;;;;;13.04;90.83;101450.88;5015957;28;20087;-77
2021/09/18 07:12:45;;;;;;;48.05;31.73;;;;;;;13.23;90.72;101446.38;5019206;28;20029;-77
2021/09/18 07:15:11;;;;;;;52.72;32.40;;;;;;;13.55;89.41;101452.69;4997863;28;20037;-77
2021/09/18 07:17:37;;;;;;;51.83;32.83;;;;;;;13.83;87.86;101454.03;5031026;28;20080;-76
2021/09/18 07:20:04;;;;;;;48.83;31.60;;;;;;;14.10;86.90;101451.28;5002298;28;20034;-79
2021/09/18 07:22:29;;;;;;;45.72;30.55;;;;;;;14.33;85.06;101449.63;5015033;28;20029;-78
2021/09/18 07:24:55;;;;;;;47.60;31.80;;;;;;;14.52;84.36;101451.09;5019539;28;20037;-79
2021/09/18 07:27:21;;;;;;;50.38;29.60;;;;;;;14.84;83.99;101440.75;5013295;28;20900;-78
2021/09/18 07:29:50;;;;;;;50.67;31.30;;;;;;;15.33;81.97;101440.53;5015643;28;20041;-79
2021/09/18 07:32:16;;;;;;;42.88;27.60;;;;;;;15.82;80.45;101442.06;5022178;28;20041;-79
2021/09/18 07:34:42;;;;;;;43.38;29.38;;;;;;;16.20;78.87;101439.44;4999461;28;20461;-80
2021/09/18 07:37:08;;;;;;;46.83;30.63;;;;;;;16.56;77.94;101439.59;5010878;28;20037;-78
2021/09/18 07:39:33;;;;;;;50.47;31.38;;;;;;;16.95;75.82;101435.09;5013844;28;20037;-79
2021/09/18 07:41:59;;;;;;;52.67;31.13;;;;;;;17.04;73.72;101437.44;5016128;28;20498;-80
2021/09/18 07:44:24;;;;;;;43.03;27.65;;;;;;;16.93;74.41;101437.88;5013234;28;20033;-79
2021/09/18 07:46:50;;;;;;;38.35;26.58;;;;;;;17.07;74.22;101444.94;5012857;28;20037;-79
2021/09/18 07:49:17;;;;;;;44.80;26.75;;;;;;;17.31;72.80;101443.81;5013581;28;20289;-80
2021/09/18 07:51:43;;;;;;;39.42;25.58;;;;;;;17.69;72.58;101448.81;5013564;28;20025;-79
2021/09/18 07:54:08;;;;;;;43.85;28.92;;;;;;;17.91;71.66;101448.84;5013655;28;20545;-79
2021/09/18 07:56:34;;;;;;;47.70;29.42;;;;;;;18.09;70.73;101449.19;5021559;28;20041;-79
2021/09/18 07:58:59;;;;;;;40.88;27.67;;;;;;;18.39;71.06;101445.59;5027900;28;20079;-80
2021/09/18 08:01:27;;;;;;;40.63;28.00;;;;;;;18.72;69.64;101443.13;5024423;28;20448;-79
2021/09/18 08:03:58;;;;;;;53.55;32.22;;;;;;;19.04;68.95;101444.34;5004201;28;20030;-79
2021/09/18 08:06:25;;;;;;;52.75;29.50;;;;;;;19.45;67.67;101448.69;5006285;28;20483;-80
2021/09/18 08:08:50;;;;;;;53.17;33.33;;;;;;;19.40;66.75;101451.13;4997153;28;20491;-78
2021/09/18 08:11:19;;;;;;;49.67;31.30;;;;;;;19.33;67.73;101452.13;5018308;28;20184;-78
2021/09/18 08:13:45;;;;;;;48.95;32.30;;;;;;;19.06;68.41;101449.38;4998946;28;20479;-78
2021/09/18 08:16:10;;;;;;;50.15;33.72;;;;;;;18.71;70.02;101457.28;5014724;28;20202;-79
2021/09/18 08:18:36;;;;;;;52.67;33.45;;;;;;;18.30;71.44;101458.03;5013409;28;20025;-79
2021/09/18 08:21:03;;;;;;;50.30;34.35;;;;;;;18.13;72.20;101467.19;5022549;28;20029;-77
2021/09/18 08:23:29;;;;;;;45.25;28.55;;;;;;;18.44;71.40;101458.91;5013276;28;20144;-80
2021/09/18 08:25:55;;;;;;;45.72;31.00;;;;;;;18.88;69.89;101460.44;5003631;28;20033;-80
2021/09/18 08:28:21;;;;;;;48.38;31.17;;;;;;;19.36;67.58;101464.84;5016193;28;20060;-78
2021/09/18 08:30:46;;;;;;;52.03;35.65;;;;;;;19.45;66.88;101455.78;5009821;28;20346;-80
2021/09/18 08:33:11;;;;;;;51.25;33.05;;;;;;;19.65;66.34;101459.25;5016493;28;20458;-81
2021/09/18 08:35:37;;;;;;;46.10;31.50;;;;;;;19.78;66.53;101450.59;5030558;28;20037;-83
2021/09/18 08:38:02;;;;;;;53.83;35.42;;;;;;;19.98;64.83;101457.69;5000909;28;20026;-81
2021/09/18 08:40:37;;;;;;;50.70;33.65;;;;;;;19.73;66.19;101463.53;5013367;28;20034;-80
2021/09/18 08:43:05;;;;;;;57.90;37.35;;;;;;;19.35;66.79;101468.50;5007106;28;20076;-80
2021/09/18 08:45:31;;;;;;;53.90;35.55;;;;;;;19.62;67.57;101461.47;5008499;28;20382;-80
2021/09/18 08:47:57;;;;;;;54.80;35.92;;;;;;;19.82;66.99;101469.44;5020775;28;20025;-78
2021/09/18 08:50:23;;;;;;;48.47;31.95;;;;;;;19.94;66.05;101470.44;4995676;28;20029;-81
2021/09/18 08:52:50;;;;;;;51.80;34.58;;;;;;;20.29;64.52;101472.06;4996839;28;20083;-79
2021/09/18 08:55:16;;;;;;;52.25;33.05;;;;;;;20.69;64.66;101472.81;5020573;28;20033;-79
2021/09/18 08:57:42;;;;;;;57.10;36.47;;;;;;;20.78;62.29;101471.59;5022165;28;20032;-79
2021/09/18 09:00:29;;;;;;;56.80;37.47;;;;;;;20.47;64.56;101466.97;5033963;28;20387;-79
2021/09/18 09:02:55;;;;;;;55.38;35.83;;;;;;;20.74;63.86;101469.59;5020017;28;20399;-80
2021/09/18 09:05:26;;;;;;;56.03;35.78;;;;;;;20.84;64.16;101466.50;5012340;28;20483;-77
2021/09/18 09:08:09;;;;;;;62.17;38.95;;;;;;;20.83;63.07;101467.50;5018036;28;20033;-79
2021/09/18 09:10:36;;;;;;;60.47;37.20;;;;;;;20.38;64.04;101468.19;5011424;28;20040;-77
2021/09/18 09:13:13;;;;;;;62.80;38.50;;;;;;;20.33;66.29;101471.44;5013737;28;20475;-80
2021/09/18 09:15:43;;;;;;;65.00;42.83;;;;;;;20.53;65.83;101475.88;5012378;28;20029;-81
2021/09/18 09:18:22;;;;;;;72.07;39.13;;;;;;;20.70;65.91;101471.00;5015128;28;20047;-79
2021/09/18 09:21:06;;;;;;;64.38;39.22;;;;;;;20.96;64.80;101475.38;5014919;28;20063;-81
2021/09/18 09:23:33;;;;;;;64.88;40.33;;;;;;;21.02;63.23;101477.19;5029058;28;20048;-79
2021/09/18 09:25:59;;;;;;;57.95;36.53;;;;;;;21.11;63.75;101467.19;5014475;28;20565;-78
2021/09/18 09:28:31;;;;;;;61.72;37.85;;;;;;;21.15;62.80;101471.88;5003533;28;20036;-79
2021/09/18 09:31:12;;;;;;;66.55;41.35;;;;;;;21.23;62.19;101464.69;5019764;28;20037;-78
2021/09/18 09:34:01;;;;;;;58.70;40.35;;;;;;;21.18;63.16;101474.06;5008534;28;20120;-77
2021/09/18 09:36:29;;;;;;;66.82;40.97;;;;;;;20.94;63.95;101472.13;5011286;28;20057;-78
2021/09/18 09:39:00;;;;;;;69.30;40.50;;;;;;;21.24;63.14;101467.13;5016673;28;20041;-78
2021/09/18 09:41:48;;;;;;;61.50;39.92;;;;;;;21.14;64.99;101458.88;5034249;28;20044;-78
2021/09/18 09:44:18;;;;;;;55.65;36.55;;;;;;;21.34;64.06;101461.41;5014604;28;20068;-78
2021/09/18 09:46:57;;;;;;;52.30;34.80;;;;;;;21.19;64.47;101464.31;4994652;28;20278;-80
2021/09/18 09:49:23;;;;;;;56.13;34.08;;;;;;;21.36;63.75;101462.00;5034065;28;20160;-80
2021/09/18 09:51:48;;;;;;;53.25;35.50;;;;;;;21.44;63.66;101455.69;5016149;28;20578;-76
2021/09/18 09:54:25;;;;;;;57.95;36.88;;;;;;;21.53;63.30;101460.53;4999106;28;20400;-81
2021/09/18 09:57:12;;;;;;;53.10;33.30;;;;;;;21.64;62.78;101456.38;5026070;28;20541;-80
2021/09/18 09:59:38;;;;;;;57.58;34.53;;;;;;;21.61;62.25;101461.28;5020088;28;20029;-80
2021/09/18 10:02:06;;;;;;;51.35;34.97;;;;;;;21.53;62.98;101459.69;5018833;28;20041;-78
2021/09/18 10:04:33;;;;;;;48.95;31.45;;;;;;;21.52;63.21;101458.09;4995279;28;20037;-78
2021/09/18 10:06:58;;;;;;;60.85;36.70;;;;;;;21.64;62.60;101458.22;5032971;28;20116;-78
2021/09/18 10:09:25;;;;;;;61.72;36.58;;;;;;;21.56;63.67;101457.44;4997144;28;20150;-76
2021/09/18 10:11:53;;;;;;;51.00;33.33;;;;;;;21.84;61.89;101458.88;5015569;28;20110;-78
2021/09/18 10:14:21;;;;;;;53.80;33.38;;;;;;;22.03;62.92;101454.44;5029493;28;20038;-80
2021/09/18 10:16:49;;;;;;;52.60;33.08;;;;;;;22.00;60.35;101451.44;5024517;28;20083;-79
2021/09/18 10:19:17;;;;;;;47.30;30.63;;;;;;;21.91;61.34;101443.00;5019658;28;20046;-78
2021/09/18 10:24:32;;;;;;;38.10;22.60;;;;;;;21.68;58.59;101443.56;5012365;28;20033;-79
2021/09/18 10:27:18;;;;;;;37.53;21.75;;;;;;;21.72;56.51;101442.94;5027798;28;20631;-78
2021/09/18 10:29:43;;;;;;;37.17;21.38;;;;;;;21.85;57.19;101443.84;5015401;28;20239;-77
2021/09/18 10:32:09;;;;;;;36.15;23.33;;;;;;;21.86;57.39;101443.63;5022300;28;20033;-78
2021/09/18 10:34:34;;;;;;;36.90;22.63;;;;;;;22.06;57.99;101440.03;5019754;28;20395;-80
2021/09/18 10:37:00;;;;;;;32.28;18.65;;;;;;;21.89;57.21;101442.41;5018928;28;20069;-81
2021/09/18 10:39:25;;;;;;;23.85;13.73;;;;;;;21.88;54.33;101438.13;5007842;28;20128;-78
2021/09/18 10:41:53;;;;;;;20.23;12.18;;;;;;;22.01;53.67;101443.31;5025762;28;20033;-79
2021/09/18 10:44:22;;;;;;;19.38;10.93;;;;;;;22.12;50.31;101439.16;5016162;28;20120;-83
2021/09/18 10:46:50;;;;;;;19.10;12.13;;;;;;;22.12;51.00;101432.03;5009418;28;20046;-79
2021/09/18 10:52:17;;;;;;;29.58;15.90;;;;;;;22.13;52.80;101427.56;5040622;28;20398;-79
2021/09/18 10:55:10;;;;;;;24.75;13.90;;;;;;;22.02;53.48;101426.44;5024663;28;20029;-81
2021/09/18 10:57:36;;;;;;;24.83;14.40;;;;;;;22.24;52.83;101433.97;5019044;28;20502;-77
2021/09/18 11:00:24;;;;;;;19.55;11.13;;;;;;;22.48;50.58;101417.28;4999677;28;20105;-79
2021/09/18 11:02:57;;;;;;;26.30;14.57;;;;;;;22.44;51.78;101418.75;5021756;28;20061;-79
2021/09/18 11:05:22;;;;;;;27.23;14.70;;;;;;;22.76;52.44;101418.59;5035567;28;20099;-78
2021/09/18 11:07:50;;;;;;;25.85;12.65;;;;;;;22.61;50.49;101416.31;5010184;28;20140;-77
2021/09/18 11:10:18;;;;;;;20.00;13.18;;;;;;;22.78;50.78;101413.88;5034410;28;20052;-79
2021/09/18 11:13:07;;;;;;;26.23;13.80;;;;;;;22.87;49.62;101415.19;5038434;28;20028;-78
2021/09/18 11:15:53;;;;;;;25.73;15.70;;;;;;;22.83;51.01;101411.38;5014855;28;20399;-79